Time;durP1;ratioP1;P1;durP2;ratioP2;P2;SDS_P1;SDS_P2;PMS_P1;PMS_P2;Temp;Humidity;BMP_temperature;BMP_pressure;BME280_temperature;BME280_humidity;BME280_pressure;Samples;Min_cycle;Max_cycle;Signal;HPM_P1;HPM_P2
2021/06/22 00:01:47;;;;;;;13.60;4.63;;;;;;;11.76;88.98;100966.34;5094865;28;20027;-83
2021/06/22 00:04:13;;;;;;;10.85;4.65;;;;;;;11.70;88.07;100965.56;5094949;28;20024;-82
2021/06/22 00:06:38;;;;;;;9.13;4.72;;;;;;;11.70;88.92;100970.81;5094506;28;20031;-86
2021/06/22 00:09:03;;;;;;;13.95;4.05;;;;;;;11.56;88.11;100966.69;5094475;28;20137;-84
2021/06/22 00:11:29;;;;;;;9.73;4.00;;;;;;;11.57;87.78;100975.38;5094471;28;20027;-82
2021/06/22 00:13:54;;;;;;;9.27;3.65;;;;;;;11.48;89.27;100976.41;5094393;28;20442;-80
2021/06/22 00:16:19;;;;;;;9.18;4.30;;;;;;;11.51;88.35;100986.81;5093473;28;20032;-80
2021/06/22 00:18:45;;;;;;;7.20;3.75;;;;;;;11.58;89.25;100998.91;5094629;28;20024;-81
2021/06/22 00:21:10;;;;;;;6.45;3.80;;;;;;;11.61;89.63;101004.09;5094317;28;20101;-80
2021/06/22 00:23:35;;;;;;;11.70;4.35;;;;;;;11.58;88.83;101013.75;5094001;28;20028;-82
2021/06/22 00:26:01;;;;;;;8.80;3.80;;;;;;;11.53;89.66;101021.66;5093999;28;20024;-80
2021/06/22 00:28:26;;;;;;;9.07;4.38;;;;;;;11.60;88.56;101022.44;5094268;28;20107;-80
2021/06/22 00:30:51;;;;;;;10.10;4.07;;;;;;;11.57;88.42;101015.47;5093985;28;20039;-80
2021/06/22 00:33:16;;;;;;;5.82;4.05;;;;;;;11.62;88.16;101016.28;5094019;28;20024;-78
2021/06/22 00:35:42;;;;;;;12.98;5.40;;;;;;;11.64;89.83;101025.00;5093869;28;20047;-78
2021/06/22 00:38:07;;;;;;;8.02;3.38;;;;;;;11.70;89.00;101031.00;5093993;28;20434;-81
2021/06/22 00:40:32;;;;;;;10.88;3.90;;;;;;;11.83;87.57;101029.91;5093927;28;20031;-79
2021/06/22 00:42:58;;;;;;;9.98;4.03;;;;;;;11.73;89.61;101041.44;5093800;28;20097;-82
2021/06/22 00:45:33;;;;;;;9.15;4.45;;;;;;;11.79;88.77;101036.09;5094039;28;20374;-79
2021/06/22 00:47:58;;;;;;;11.07;5.13;;;;;;;11.78;90.25;101036.97;5094730;28;20105;-79
2021/06/22 00:50:24;;;;;;;6.95;4.20;;;;;;;11.78;89.52;101036.97;5093945;28;20060;-81
2021/06/22 00:52:50;;;;;;;21.27;4.80;;;;;;;11.71;89.36;101037.97;5093521;28;20030;-82
2021/06/22 00:55:28;;;;;;;7.68;4.18;;;;;;;11.82;88.40;101038.66;5093812;28;20028;-80
2021/06/22 00:58:04;;;;;;;8.85;4.32;;;;;;;11.82;89.99;101025.56;5093555;28;20051;-81
2021/06/22 01:00:30;;;;;;;10.45;4.43;;;;;;;11.78;89.75;101021.25;5093793;28;20315;-80
2021/06/22 01:02:56;;;;;;;10.30;3.80;;;;;;;11.84;88.76;101023.81;5093356;28;20031;-79
2021/06/22 01:05:22;;;;;;;10.40;3.95;;;;;;;11.88;88.77;101022.00;5093667;28;20103;-81
2021/06/22 01:07:51;;;;;;;8.43;3.95;;;;;;;11.87;87.68;101026.34;5094335;28;20023;-81
2021/06/22 01:10:16;;;;;;;10.65;4.32;;;;;;;11.89;88.98;101026.31;5093462;28;20050;-80
2021/06/22 01:12:44;;;;;;;8.98;3.83;;;;;;;11.81;89.20;101021.25;5093091;28;20023;-81
2021/06/22 01:15:15;;;;;;;7.57;3.45;;;;;;;11.81;88.90;101026.47;5093521;28;20024;-80
2021/06/22 01:17:40;;;;;;;7.38;3.88;;;;;;;11.78;88.40;101026.50;5092925;28;20051;-80
2021/06/22 01:20:06;;;;;;;15.05;4.10;;;;;;;11.81;89.01;101029.94;5093370;28;20020;-80
2021/06/22 01:22:32;;;;;;;5.57;3.60;;;;;;;11.86;88.18;101032.47;5092932;28;20024;-80
2021/06/22 01:24:57;;;;;;;8.77;3.65;;;;;;;11.92;88.82;101032.38;5094294;28;20331;-81
2021/06/22 01:27:22;;;;;;;10.60;3.78;;;;;;;11.75;89.05;101037.91;5075439;28;20449;-81
2021/06/22 01:29:49;;;;;;;12.50;3.72;;;;;;;11.84;89.17;101021.19;5093161;28;20016;-80
2021/06/22 01:32:14;;;;;;;4.72;3.42;;;;;;;11.76;89.58;101012.59;5093435;28;20028;-80
2021/06/22 01:34:40;;;;;;;8.73;3.75;;;;;;;11.79;89.22;101007.31;5076334;28;20097;-80
2021/06/22 01:37:08;;;;;;;8.65;4.00;;;;;;;11.80;89.36;101009.03;5092841;28;20489;-80
2021/06/22 01:39:33;;;;;;;10.15;3.92;;;;;;;11.77;90.66;101011.72;5093079;28;20078;-80
2021/06/22 01:41:58;;;;;;;9.00;4.07;;;;;;;11.72;89.96;101016.16;5093229;28;20028;-81
2021/06/22 01:44:28;;;;;;;8.70;4.10;;;;;;;11.77;89.14;101014.31;5093156;28;20055;-82
2021/06/22 01:46:54;;;;;;;8.52;3.05;;;;;;;11.73;88.11;101017.88;5093214;28;20300;-82
2021/06/22 01:49:19;;;;;;;13.88;3.80;;;;;;;11.69;88.16;101019.66;5093106;28;20020;-83
2021/06/22 01:51:44;;;;;;;9.10;4.00;;;;;;;11.76;88.99;101028.28;5076488;28;20032;-81
2021/06/22 01:54:10;;;;;;;12.85;3.55;;;;;;;11.85;89.36;101030.78;5092864;28;20028;-82
2021/06/22 01:56:35;;;;;;;9.82;3.60;;;;;;;11.87;89.03;101031.59;5093100;28;20016;-81
2021/06/22 01:59:02;;;;;;;7.68;3.00;;;;;;;11.88;88.58;101042.94;5093222;28;20050;-81
2021/06/22 02:01:27;;;;;;;10.85;3.72;;;;;;;11.87;88.76;101052.53;5093991;28;20130;-81
2021/06/22 02:03:52;;;;;;;10.40;3.28;;;;;;;11.93;89.49;101062.03;5075728;28;20138;-81
2021/06/22 02:06:18;;;;;;;6.65;2.53;;;;;;;11.82;88.81;101075.28;5092762;28;20052;-81
2021/06/22 02:08:43;;;;;;;7.75;2.85;;;;;;;11.81;89.41;101074.44;5093013;28;20127;-82
2021/06/22 02:11:08;;;;;;;9.25;3.38;;;;;;;11.87;88.48;101083.94;5075450;28;20027;-82
2021/06/22 02:13:34;;;;;;;7.65;3.85;;;;;;;11.86;89.42;101073.50;5092487;28;20055;-82
2021/06/22 02:16:00;;;;;;;11.90;3.33;;;;;;;11.88;87.61;101076.97;5093686;28;20048;-81
2021/06/22 02:18:25;;;;;;;9.13;3.58;;;;;;;11.84;87.78;101084.00;5092700;28;20092;-81
2021/06/22 02:20:51;;;;;;;7.03;3.30;;;;;;;11.89;87.37;101086.53;5092646;28;20049;-81
2021/06/22 02:23:16;;;;;;;9.00;3.58;;;;;;;11.98;87.92;101092.56;5075786;28;20388;-82
2021/06/22 02:25:42;;;;;;;8.45;3.50;;;;;;;11.95;86.38;101095.19;5092697;28;20093;-81
2021/06/22 02:28:11;;;;;;;14.23;4.07;;;;;;;11.88;87.56;101093.53;5092714;28;20062;-81
2021/06/22 02:30:37;;;;;;;8.00;3.05;;;;;;;12.02;87.07;101084.63;5092716;28;20023;-81
2021/06/22 02:33:03;;;;;;;8.57;3.33;;;;;;;12.04;86.83;101078.50;5092577;28;20028;-82
2021/06/22 02:35:29;;;;;;;7.43;3.33;;;;;;;12.04;86.63;101085.47;5093546;28;20035;-82
2021/06/22 02:37:54;;;;;;;10.57;3.30;;;;;;;11.77;87.00;101085.00;5092949;28;20032;-82
2021/06/22 02:40:20;;;;;;;9.15;3.63;;;;;;;11.83;86.26;101093.63;5079791;28;20352;-81
2021/06/22 02:42:47;;;;;;;8.93;2.95;;;;;;;11.78;86.92;101078.84;5096098;28;20024;-82
2021/06/22 02:45:14;;;;;;;11.43;3.08;;;;;;;11.90;85.47;101086.53;5079629;28;20020;-80
2021/06/22 02:47:39;;;;;;;13.35;3.03;;;;;;;12.00;85.68;101075.06;5062673;28;20028;-83
2021/06/22 02:50:05;;;;;;;9.93;2.40;;;;;;;12.02;85.20;101068.94;5096354;28;20453;-82
2021/06/22 02:52:31;;;;;;;9.90;2.80;;;;;;;11.94;85.01;101069.94;5096460;28;20178;-80
2021/06/22 02:54:57;;;;;;;6.85;3.25;;;;;;;11.88;85.15;101058.66;5079334;28;20193;-81
2021/06/22 02:57:22;;;;;;;5.95;3.45;;;;;;;11.96;84.49;101056.81;5096439;28;20016;-82
2021/06/22 02:59:47;;;;;;;11.20;3.13;;;;;;;11.94;84.40;101054.22;5096207;28;20020;-82
2021/06/22 03:02:13;;;;;;;7.45;2.58;;;;;;;12.02;83.62;101051.47;5096914;28;20028;-82
2021/06/22 03:04:38;;;;;;;8.05;2.53;;;;;;;12.01;83.80;101057.56;5096364;28;20063;-83
2021/06/22 03:07:04;;;;;;;7.47;2.58;;;;;;;12.09;84.52;101044.38;5096234;28;20036;-82
2021/06/22 03:09:29;;;;;;;9.57;3.47;;;;;;;12.07;84.36;101054.00;5079043;28;20339;-82
2021/06/22 03:11:55;;;;;;;11.40;3.25;;;;;;;11.91;86.10;101069.91;5096068;28;20056;-83
2021/06/22 03:14:21;;;;;;;6.97;3.28;;;;;;;11.93;86.72;101077.75;5078746;28;20106;-83
2021/06/22 03:16:46;;;;;;;7.88;2.60;;;;;;;11.89;85.54;101092.66;5095393;28;20483;-83
2021/06/22 03:19:12;;;;;;;11.70;2.60;;;;;;;11.85;85.69;101101.44;5078670;28;20035;-82
2021/06/22 03:21:40;;;;;;;5.90;2.85;;;;;;;11.88;86.00;101109.25;5078730;28;20023;-83
2021/06/22 03:24:06;;;;;;;7.93;3.50;;;;;;;11.77;86.71;101105.94;5095340;28;20321;-82
2021/06/22 03:26:31;;;;;;;10.45;3.03;;;;;;;11.65;87.57;101110.44;5096160;28;20051;-81
2021/06/22 03:28:56;;;;;;;7.30;3.35;;;;;;;11.70;88.17;101117.34;5096403;28;20023;-82
2021/06/22 03:31:21;;;;;;;8.85;3.40;;;;;;;11.69;87.80;101126.97;5096672;28;20024;-83
2021/06/22 03:33:47;;;;;;;9.80;3.60;;;;;;;11.77;88.60;101132.09;5096376;28;20027;-83
2021/06/22 03:36:12;;;;;;;10.35;3.00;;;;;;;11.77;88.20;101146.03;5095120;28;20020;-82
2021/06/22 03:38:37;;;;;;;9.40;3.53;;;;;;;11.75;88.30;101162.66;5095608;28;20339;-82
2021/06/22 03:41:03;;;;;;;5.00;3.40;;;;;;;11.71;87.26;101167.06;5095107;28;20324;-81
2021/06/22 03:43:28;;;;;;;8.07;3.08;;;;;;;11.77;88.22;101177.44;5078317;28;20020;-82
2021/06/22 03:45:54;;;;;;;8.93;3.42;;;;;;;11.78;88.11;101183.53;5095327;28;20077;-83
2021/06/22 03:48:20;;;;;;;7.00;3.20;;;;;;;11.73;88.04;101170.53;5095230;28;20084;-83
2021/06/22 03:50:45;;;;;;;9.90;3.25;;;;;;;11.89;89.04;101155.47;5094513;28;20434;-83
2021/06/22 03:53:11;;;;;;;8.07;3.30;;;;;;;12.00;89.05;101143.13;5095178;28;20115;-83
2021/06/22 03:55:36;;;;;;;5.63;2.85;;;;;;;11.91;88.63;101131.91;5095155;28;20028;-83
2021/06/22 03:58:03;;;;;;;6.78;2.53;;;;;;;11.98;87.71;101129.19;5095233;28;20059;-83
2021/06/22 04:00:29;;;;;;;5.47;3.17;;;;;;;12.03;88.38;101115.19;5095052;28;20065;-84
2021/06/22 04:02:59;;;;;;;5.53;2.80;;;;;;;11.96;88.06;101111.78;5094799;28;20410;-83
2021/06/22 04:05:29;;;;;;;9.98;3.08;;;;;;;12.01;88.45;101102.09;5078513;28;20028;-84
2021/06/22 04:07:55;;;;;;;5.70;3.15;;;;;;;11.97;89.03;101105.63;5094614;28;20028;-84
2021/06/22 04:10:20;;;;;;;4.68;2.72;;;;;;;11.96;89.01;101110.03;5095071;28;20043;-84
2021/06/22 04:12:46;;;;;;;11.07;3.47;;;;;;;12.02;87.86;101114.28;5095732;28;20095;-83
2021/06/22 04:15:12;;;;;;;3.67;2.50;;;;;;;12.02;88.25;101119.53;5094732;28;20055;-84
2021/06/22 04:17:37;;;;;;;7.15;2.97;;;;;;;11.98;88.87;101117.84;5077642;28;20353;-83
2021/06/22 04:20:04;;;;;;;9.38;3.38;;;;;;;11.90;89.10;101125.81;5077834;28;20077;-84
2021/06/22 04:22:29;;;;;;;5.40;3.10;;;;;;;12.05;89.25;101129.09;5094571;28;20316;-84
2021/06/22 04:24:54;;;;;;;8.02;3.13;;;;;;;11.86;89.08;101129.31;5094708;28;20081;-84
2021/06/22 04:27:20;;;;;;;7.25;3.05;;;;;;;11.81;89.51;101116.31;5094743;28;20056;-84
2021/06/22 04:29:46;;;;;;;6.57;3.00;;;;;;;11.93;89.92;101110.03;5094770;28;20490;-84
2021/06/22 04:32:12;;;;;;;7.32;2.80;;;;;;;11.93;90.16;101114.41;5094521;28;20020;-84
2021/06/22 04:34:37;;;;;;;8.68;3.92;;;;;;;11.90;89.87;101112.72;5094367;28;20042;-83
2021/06/22 04:37:03;;;;;;;4.70;2.95;;;;;;;11.96;89.35;101119.63;5094141;28;20373;-83
2021/06/22 04:39:28;;;;;;;6.00;2.90;;;;;;;12.07;89.12;101115.09;5077232;28;20031;-84
2021/06/22 04:41:53;;;;;;;4.82;3.63;;;;;;;12.02;88.97;101124.75;5094454;28;20032;-83
2021/06/22 04:44:19;;;;;;;6.30;2.65;;;;;;;11.84;89.81;101123.25;5094137;28;20085;-83
2021/06/22 04:46:44;;;;;;;3.65;3.05;;;;;;;11.97;88.89;101127.47;5094730;28;20027;-83
2021/06/22 04:49:10;;;;;;;6.65;2.78;;;;;;;12.04;88.68;101120.38;5094621;28;20028;-82
2021/06/22 04:51:35;;;;;;;5.95;2.85;;;;;;;12.08;88.71;101108.09;5077718;28;20051;-84
2021/06/22 04:54:00;;;;;;;8.13;3.17;;;;;;;12.21;87.97;101114.88;5094357;28;20415;-84
2021/06/22 04:56:26;;;;;;;8.98;3.00;;;;;;;12.03;88.87;101109.94;5094148;28;20024;-82
2021/06/22 04:58:54;;;;;;;6.25;3.40;;;;;;;12.13;88.54;101111.50;5094676;28;20039;-83
2021/06/22 05:01:19;;;;;;;4.10;2.33;;;;;;;12.07;87.42;101109.84;5095434;28;20035;-84
2021/06/22 05:03:45;;;;;;;7.25;2.78;;;;;;;12.09;87.56;101120.31;5094316;28;20359;-84
2021/06/22 05:06:11;;;;;;;4.45;3.10;;;;;;;12.08;86.60;101113.31;5094346;28;20098;-84
2021/06/22 05:08:37;;;;;;;9.00;2.78;;;;;;;11.96;88.54;101120.50;5094754;28;20023;-84
2021/06/22 05:11:04;;;;;;;5.43;3.05;;;;;;;12.12;86.19;101125.47;5094514;28;20024;-84
2021/06/22 05:13:30;;;;;;;8.98;3.17;;;;;;;12.25;85.15;101127.03;5094455;28;20093;-84
2021/06/22 05:15:55;;;;;;;13.45;3.10;;;;;;;12.41;85.50;101126.78;5095224;28;20020;-83
2021/06/22 05:18:20;;;;;;;7.90;2.20;;;;;;;12.46;83.90;101145.88;5099205;22;20036;-72
2021/06/22 05:20:46;;;;;;;4.70;2.58;;;;;;;12.67;82.11;101147.28;5073075;28;20020;-71
2021/06/22 05:23:11;;;;;;;5.25;2.60;;;;;;;12.74;82.37;101155.91;5072505;28;20317;-72
2021/06/22 05:25:36;;;;;;;5.35;2.30;;;;;;;12.77;82.27;101155.84;5073929;28;20405;-71
2021/06/22 05:28:02;;;;;;;5.63;2.13;;;;;;;12.68;80.85;101151.66;5060392;28;20421;-72
2021/06/22 05:30:27;;;;;;;9.38;2.80;;;;;;;12.61;82.69;101166.63;5052704;28;20093;-71
2021/06/22 05:32:53;;;;;;;7.20;2.80;;;;;;;12.78;80.49;101168.91;5035912;28;20053;-71
2021/06/22 05:35:18;;;;;;;7.22;2.88;;;;;;;12.72;78.85;101162.91;5052466;28;20150;-72
2021/06/22 05:37:46;;;;;;;7.30;2.40;;;;;;;12.81;79.24;101163.63;5052518;28;20043;-72
2021/06/22 05:40:11;;;;;;;5.75;2.53;;;;;;;12.68;79.49;101157.75;5053629;28;20079;-71
2021/06/22 05:42:37;;;;;;;6.88;2.08;;;;;;;12.65;78.39;101167.41;5035112;28;20020;-71
2021/06/22 05:45:04;;;;;;;7.40;2.42;;;;;;;12.66;77.50;101162.13;5052568;28;20127;-71
2021/06/22 05:47:30;;;;;;;6.57;2.30;;;;;;;12.76;80.09;101169.84;5035738;28;20049;-71
2021/06/22 05:49:55;;;;;;;8.70;1.98;;;;;;;12.89;79.80;101173.97;5052681;28;20100;-71
2021/06/22 05:52:21;;;;;;;4.15;2.13;;;;;;;13.10;79.11;101177.97;5053121;28;20433;-71
2021/06/22 05:54:47;;;;;;;7.38;2.88;;;;;;;13.24;77.74;101174.19;5053616;28;20337;-72
2021/06/22 05:57:12;;;;;;;9.70;2.80;;;;;;;13.09;78.00;101178.84;5054891;28;20421;-72
2021/06/22 05:59:37;;;;;;;9.63;2.72;;;;;;;13.21;78.37;101177.78;5037489;28;20036;-72
2021/06/22 06:02:03;;;;;;;5.22;2.13;;;;;;;13.46;76.23;101172.06;5053860;28;20107;-72
2021/06/22 06:04:29;;;;;;;9.80;2.35;;;;;;;13.52;74.26;101178.03;5035610;28;20021;-71
2021/06/22 06:06:55;;;;;;;7.85;2.60;;;;;;;13.68;74.53;101175.94;5052376;28;20032;-72
2021/06/22 06:09:22;;;;;;;12.20;2.70;;;;;;;13.85;74.61;101185.22;5052505;28;20025;-72
2021/06/22 06:11:47;;;;;;;7.20;2.53;;;;;;;14.39;71.22;101183.13;5050352;28;20017;-72
2021/06/22 06:14:13;;;;;;;3.88;1.63;;;;;;;14.28;71.99;101178.97;5052319;28;20027;-72
2021/06/22 06:16:38;;;;;;;8.68;2.90;;;;;;;13.98;74.08;101178.78;5056416;28;20029;-73
2021/06/22 06:19:03;;;;;;;9.65;3.60;;;;;;;14.07;72.38;101182.09;5056016;28;20056;-72
2021/06/22 06:21:29;;;;;;;12.52;3.50;;;;;;;14.72;69.42;101178.81;5053651;28;20070;-72
2021/06/22 06:23:56;;;;;;;11.68;3.13;;;;;;;15.27;67.37;101176.47;5053878;28;20319;-72
2021/06/22 06:26:23;;;;;;;5.60;2.28;;;;;;;16.86;61.70;101173.28;5056954;28;20035;-72
2021/06/22 06:28:53;;;;;;;6.80;2.15;;;;;;;16.88;61.84;101176.75;5056471;28;20065;-71
2021/06/22 06:31:21;;;;;;;5.50;2.47;;;;;;;16.66;60.56;101177.47;5056981;28;20017;-72
2021/06/22 06:33:46;;;;;;;5.75;2.60;;;;;;;17.42;56.80;101176.59;5039036;28;20457;-72
2021/06/22 06:36:12;;;;;;;7.63;2.40;;;;;;;17.08;57.51;101183.97;5039456;28;20037;-72
2021/06/22 06:38:37;;;;;;;3.15;1.50;;;;;;;16.48;60.42;101181.56;5058509;28;20036;-72
2021/06/22 06:41:02;;;;;;;3.92;1.80;;;;;;;15.72;63.04;101193.63;5076123;28;20402;-72
2021/06/22 06:43:28;;;;;;;5.43;1.90;;;;;;;15.62;62.69;101193.00;5051340;28;20437;-72
2021/06/22 06:45:53;;;;;;;8.68;2.08;;;;;;;15.38;63.68;101194.59;5043436;28;20024;-72
2021/06/22 06:48:19;;;;;;;11.30;1.85;;;;;;;14.93;64.73;101208.06;5069427;28;20035;-72
2021/06/22 06:50:44;;;;;;;3.72;1.83;;;;;;;14.93;65.96;101219.47;5059714;28;20040;-72
2021/06/22 06:53:10;;;;;;;6.28;1.77;;;;;;;14.06;69.86;101230.28;5056873;28;20028;-71
2021/06/22 06:55:43;;;;;;;5.85;2.65;;;;;;;14.08;72.06;101228.50;5069690;28;20054;-72
2021/06/22 06:58:09;;;;;;;6.28;1.60;;;;;;;13.61;74.49;101234.72;5047675;28;20017;-72
2021/06/22 07:00:37;;;;;;;3.38;1.63;;;;;;;14.11;71.43;101225.78;5065142;28;20113;-68
2021/06/22 07:03:03;;;;;;;7.95;2.10;;;;;;;13.90;74.60;101230.63;5061608;28;20024;-68
2021/06/22 07:05:31;;;;;;;4.90;1.88;;;;;;;14.20;71.08;101228.22;5064161;28;20025;-68
2021/06/22 07:07:57;;;;;;;6.15;1.90;;;;;;;14.25;70.30;101231.59;5064213;28;20376;-69
2021/06/22 07:10:23;;;;;;;5.05;2.22;;;;;;;14.21;70.51;101222.06;5064709;28;20089;-69
2021/06/22 07:12:48;;;;;;;9.90;2.20;;;;;;;14.27;72.18;101208.78;5049095;28;20025;-69
2021/06/22 07:15:15;;;;;;;9.82;2.47;;;;;;;14.57;69.89;101222.09;5064511;28;20025;-68
2021/06/22 07:17:40;;;;;;;7.20;2.22;;;;;;;14.13;71.82;101227.47;5064615;28;20330;-69
2021/06/22 07:20:07;;;;;;;7.65;2.45;;;;;;;14.32;71.14;101243.69;5065577;28;20029;-70
2021/06/22 07:22:32;;;;;;;6.38;2.22;;;;;;;14.20;71.73;101238.72;5063809;28;20435;-67
2021/06/22 07:24:58;;;;;;;5.43;1.65;;;;;;;14.11;70.82;101228.41;5065587;28;20028;-67
2021/06/22 07:27:23;;;;;;;4.38;1.45;;;;;;;14.18;70.95;101230.03;5066630;28;20099;-69
2021/06/22 07:29:49;;;;;;;2.47;1.90;;;;;;;14.27;73.16;101237.69;5075215;28;20025;-67
2021/06/22 07:32:14;;;;;;;8.20;2.25;;;;;;;14.17;70.23;101249.31;5045802;28;20028;-68
2021/06/22 07:34:39;;;;;;;6.30;2.88;;;;;;;14.41;70.44;101237.38;5060697;28;20021;-69
2021/06/22 07:37:05;;;;;;;4.88;2.35;;;;;;;15.30;68.35;101228.16;5067347;28;20431;-69
2021/06/22 07:39:31;;;;;;;2.22;1.77;;;;;;;15.80;67.50;101220.63;5075131;28;20035;-68
2021/06/22 07:41:56;;;;;;;5.18;1.80;;;;;;;17.38;61.66;101239.22;5073101;28;20031;-67
2021/06/22 07:44:21;;;;;;;3.17;1.42;;;;;;;19.37;54.01;101233.09;5069244;28;20029;-67
2021/06/22 07:46:47;;;;;;;6.15;1.50;;;;;;;17.94;56.75;101232.78;5073543;28;20021;-71
2021/06/22 07:49:12;;;;;;;4.28;1.38;;;;;;;18.50;54.76;101234.09;5044404;28;20021;-70
2021/06/22 07:51:38;;;;;;;3.42;1.52;;;;;;;18.14;56.88;101239.09;5060423;28;20028;-71
2021/06/22 07:54:04;;;;;;;4.10;1.48;;;;;;;16.99;60.39;101237.09;5060314;28;20036;-71
2021/06/22 07:56:29;;;;;;;4.15;1.83;;;;;;;16.34;61.17;101241.81;5066434;28;20025;-71
2021/06/22 07:58:54;;;;;;;5.07;2.38;;;;;;;15.36;67.83;101239.34;5051290;28;20067;-70
2021/06/22 08:01:20;;;;;;;4.60;2.28;;;;;;;15.51;62.96;101251.22;5069143;28;20028;-71
2021/06/22 08:03:45;;;;;;;7.53;1.88;;;;;;;15.50;63.80;101246.00;5053531;28;20075;-70
2021/06/22 08:06:11;;;;;;;8.63;2.08;;;;;;;15.72;63.22;101239.22;5065872;28;20020;-70
2021/06/22 08:08:36;;;;;;;4.75;2.10;;;;;;;15.67;62.36;101246.41;5075089;28;20012;-71
2021/06/22 08:11:02;;;;;;;7.55;2.40;;;;;;;15.49;64.25;101242.53;5055879;28;20024;-71
2021/06/22 08:13:28;;;;;;;5.63;1.98;;;;;;;15.94;62.55;101246.53;5053372;28;20441;-70
2021/06/22 08:15:54;;;;;;;6.30;2.33;;;;;;;15.67;66.45;101254.28;5067423;28;20052;-70
2021/06/22 08:18:20;;;;;;;4.70;2.85;;;;;;;15.75;66.37;101250.56;5073849;28;20413;-70
2021/06/22 08:20:46;;;;;;;7.85;2.22;;;;;;;15.09;68.50;101255.91;5070914;28;20103;-70
2021/06/22 08:23:11;;;;;;;5.95;2.40;;;;;;;15.59;67.45;101245.75;5054464;28;20013;-71
2021/06/22 08:25:37;;;;;;;6.80;2.55;;;;;;;15.88;65.74;101241.44;5060273;28;20100;-71
2021/06/22 08:28:02;;;;;;;8.65;2.38;;;;;;;15.88;65.33;101249.34;5073824;28;20035;-71
2021/06/22 08:30:29;;;;;;;5.82;1.90;;;;;;;16.54;64.02;101257.00;5067084;28;20021;-71
2021/06/22 08:32:55;;;;;;;4.88;1.73;;;;;;;16.78;61.79;101259.75;5064262;28;20028;-71
2021/06/22 08:35:20;;;;;;;9.23;2.10;;;;;;;16.59;59.82;101254.22;5054936;28;20021;-70
2021/06/22 08:37:46;;;;;;;5.50;2.30;;;;;;;16.78;58.61;101265.88;5061233;28;20056;-71
2021/06/22 08:40:12;;;;;;;8.18;1.92;;;;;;;15.59;63.28;101266.81;5059749;28;20393;-71
2021/06/22 08:42:39;;;;;;;4.90;1.65;;;;;;;15.77;66.10;101275.09;5061790;28;20021;-71
2021/06/22 08:45:08;;;;;;;5.72;2.40;;;;;;;15.49;65.09;101270.63;5069612;28;20107;-71
2021/06/22 08:47:33;;;;;;;8.82;2.53;;;;;;;15.62;63.59;101266.72;5064227;28;20483;-71
2021/06/22 08:49:59;;;;;;;4.75;2.35;;;;;;;15.52;65.42;101268.75;5063885;28;20036;-71
2021/06/22 08:52:29;;;;;;;6.60;2.60;;;;;;;15.66;63.64;101259.63;5067272;28;20042;-70
2021/06/22 08:54:54;;;;;;;2.47;2.00;;;;;;;15.60;63.52;101265.91;5063399;28;20016;-71
2021/06/22 08:57:21;;;;;;;9.15;2.50;;;;;;;15.38;64.71;101269.13;5070081;28;20066;-71
2021/06/22 08:59:46;;;;;;;7.10;2.92;;;;;;;14.97;68.54;101270.22;5062061;28;20424;-71
2021/06/22 09:02:13;;;;;;;8.07;2.50;;;;;;;15.28;64.44;101267.66;5058293;28;20024;-71
2021/06/22 09:04:38;;;;;;;3.25;2.13;;;;;;;15.21;65.53;101266.97;5049898;28;20021;-70
2021/06/22 09:07:04;;;;;;;4.28;2.30;;;;;;;15.28;64.13;101272.06;5060118;28;20102;-70
2021/06/22 09:09:38;;;;;;;4.65;2.03;;;;;;;15.40;64.55;101268.25;5049447;28;20017;-71
2021/06/22 09:12:11;;;;;;;5.68;2.30;;;;;;;16.01;62.25;101268.31;5053934;28;20016;-71
2021/06/22 09:14:39;;;;;;;11.85;3.15;;;;;;;15.62;63.32;101256.19;5056816;28;20033;-71
2021/06/22 09:17:05;;;;;;;7.80;2.53;;;;;;;16.02;62.79;101264.72;5062080;28;20022;-71
2021/06/22 09:19:31;;;;;;;7.13;2.20;;;;;;;16.05;62.67;101273.41;5053081;28;20021;-71
2021/06/22 09:21:57;;;;;;;4.75;2.13;;;;;;;16.18;61.96;101265.16;5060417;28;20031;-70
2021/06/22 09:24:27;;;;;;;8.95;2.13;;;;;;;16.45;60.54;101267.84;5061953;28;20398;-70
2021/06/22 09:26:52;;;;;;;8.95;1.90;;;;;;;16.39;60.59;101269.75;5045136;28;20100;-71
2021/06/22 09:29:20;;;;;;;8.05;1.90;;;;;;;15.80;65.30;101267.13;5056671;28;20032;-71
2021/06/22 09:31:54;;;;;;;2.90;2.10;;;;;;;15.90;62.24;101265.97;5072579;28;20025;-67
2021/06/22 09:34:20;;;;;;;7.15;2.80;;;;;;;16.04;62.94;101269.06;5067357;28;20029;-67
2021/06/22 09:36:59;;;;;;;5.07;2.28;;;;;;;15.85;61.76;101265.25;5043625;28;20032;-67
2021/06/22 09:39:27;;;;;;;4.15;2.10;;;;;;;16.63;61.19;101277.78;5046318;28;20048;-65
2021/06/22 09:41:53;;;;;;;5.47;2.28;;;;;;;16.00;64.34;101277.97;5060873;28;20021;-65
2021/06/22 09:44:23;;;;;;;4.10;2.50;;;;;;;16.09;63.30;101273.31;5058499;28;20054;-66
2021/06/22 09:46:52;;;;;;;4.10;2.42;;;;;;;16.07;62.62;101267.25;5056687;28;20048;-66
2021/06/22 09:49:35;;;;;;;11.82;6.75;;;;;;;16.19;65.94;101266.88;5056781;28;20449;-66
2021/06/22 09:52:04;;;;;;;6.18;1.98;;;;;;;16.37;62.56;101261.03;5059927;28;20040;-66
2021/06/22 09:54:49;;;;;;;5.60;2.15;;;;;;;16.63;60.36;101267.22;5058980;28;20025;-66
2021/06/22 09:57:16;;;;;;;4.95;2.28;;;;;;;16.83;60.70;101263.09;5056114;28;20017;-66
2021/06/22 09:59:52;;;;;;;3.65;1.88;;;;;;;16.83;58.50;101268.38;5071000;28;20021;-66
2021/06/22 10:02:19;;;;;;;4.28;1.92;;;;;;;17.21;57.18;101266.25;5069943;28;20078;-65
2021/06/22 10:04:47;;;;;;;6.97;2.45;;;;;;;16.79;58.27;101264.97;5071407;28;20074;-65
2021/06/22 10:07:15;;;;;;;3.80;1.60;;;;;;;16.71;59.90;101265.25;5068662;28;20051;-65
2021/06/22 10:09:40;;;;;;;5.18;2.10;;;;;;;16.80;58.83;101268.47;5076588;28;20031;-66
2021/06/22 10:12:09;;;;;;;5.72;1.75;;;;;;;17.76;56.04;101266.00;5075002;28;20024;-65
2021/06/22 10:14:36;;;;;;;5.88;1.80;;;;;;;17.47;56.41;101261.81;5073620;28;20020;-64
2021/06/22 10:17:07;;;;;;;3.70;2.03;;;;;;;17.30;56.88;101268.56;5074336;28;20021;-67
2021/06/22 10:19:33;;;;;;;3.53;1.63;;;;;;;17.77;56.17;101266.91;5070792;28;20016;-67
2021/06/22 10:21:59;;;;;;;9.38;2.13;;;;;;;17.20;58.69;101268.00;5069334;28;20032;-67
2021/06/22 10:24:26;;;;;;;5.15;1.85;;;;;;;18.16;54.68;101259.25;5074654;28;20109;-67
2021/06/22 10:26:52;;;;;;;3.90;1.67;;;;;;;17.78;57.48;101260.66;5057897;28;20103;-67
2021/06/22 10:29:20;;;;;;;5.00;2.22;;;;;;;17.89;54.38;101262.00;5075894;28;20035;-67
2021/06/22 10:31:50;;;;;;;9.30;2.03;;;;;;;17.67;54.76;101279.56;5058761;28;20131;-67
2021/06/22 10:34:16;;;;;;;5.80;2.17;;;;;;;17.57;55.47;101272.00;5050768;28;20070;-67
2021/06/22 10:36:57;;;;;;;4.05;2.17;;;;;;;17.46;55.63;101273.28;5069406;28;20021;-68
2021/06/22 10:39:28;;;;;;;7.28;2.15;;;;;;;17.30;55.82;101280.88;5063112;28;20036;-69
2021/06/22 10:41:56;;;;;;;4.18;1.95;;;;;;;18.04;56.35;101280.88;5053473;28;20055;-68
2021/06/22 10:44:24;;;;;;;8.02;2.05;;;;;;;18.69;53.78;101276.53;5072276;28;20122;-69
2021/06/22 10:47:18;;;;;;;8.43;2.10;;;;;;;18.59;52.62;101281.31;5056728;28;20032;-69
2021/06/22 10:50:12;;;;;;;7.22;3.17;;;;;;;18.21;54.79;101277.56;5057452;28;20025;-69
2021/06/22 10:52:47;;;;;;;4.15;1.63;;;;;;;18.91;53.00;101270.41;5056189;28;20096;-69
2021/06/22 10:55:22;;;;;;;3.88;1.75;;;;;;;18.02;55.08;101265.06;5055797;28;20021;-69
2021/06/22 10:58:08;;;;;;;4.15;2.13;;;;;;;17.74;55.41;101274.00;5066746;28;20021;-69
2021/06/22 11:00:51;;;;;;;9.10;2.28;;;;;;;17.34;55.03;101275.47;5074968;28;20024;-69
2021/06/22 11:03:22;;;;;;;5.05;1.50;;;;;;;17.28;55.21;101280.94;5076077;28;20031;-67
2021/06/22 11:05:48;;;;;;;5.13;1.67;;;;;;;17.53;55.54;101285.34;5076653;28;20020;-69
2021/06/22 11:08:14;;;;;;;7.43;1.80;;;;;;;18.05;53.10;101287.88;5075480;28;20024;-68
2021/06/22 11:10:41;;;;;;;5.00;2.03;;;;;;;18.51;53.68;101287.84;5073318;28;20380;-67
2021/06/22 11:13:07;;;;;;;4.55;1.80;;;;;;;19.09;53.27;101282.84;5072984;28;20440;-67
2021/06/22 11:15:52;;;;;;;4.18;1.88;;;;;;;18.57;51.45;101287.63;5056916;28;20038;-67
2021/06/22 11:18:54;;;;;;;5.50;1.80;;;;;;;18.35;53.06;101296.41;5092021;22;20336;-82
2021/06/22 11:21:40;;;;;;;3.88;1.70;;;;;;;17.39;55.07;101299.91;5079008;28;20375;-84
2021/06/22 11:24:16;;;;;;;6.95;1.85;;;;;;;18.33;52.13;101303.53;5045466;28;20022;-84